createdAt,value
2023-02-23T00:01:50.579Z,30.03
2023-02-23T00:05:52.422Z,27.40
2023-02-23T00:09:54.967Z,23.20
2023-02-23T00:13:56.906Z,24.07
2023-02-23T00:17:59.042Z,27.30
2023-02-23T00:22:01.145Z,43.23
2023-02-23T00:26:04.428Z,28.30
2023-02-23T00:30:07.247Z,31.63
2023-02-23T00:34:11.605Z,32.50
2023-02-23T00:38:13.931Z,30.07
2023-02-23T00:42:15.998Z,25.63
2023-02-23T00:46:21.116Z,25.37
2023-02-23T00:50:23.251Z,17.73
2023-02-23T00:54:25.459Z,19.27
2023-02-23T00:58:27.730Z,18.27
2023-02-23T01:02:32.382Z,16.50
2023-02-23T01:06:37.478Z,15.70
2023-02-23T01:10:42.943Z,22.57
2023-02-23T01:14:47.643Z,18.37
2023-02-23T01:18:49.701Z,17.07
2023-02-23T01:22:52.592Z,15.27
2023-02-23T01:26:54.898Z,18.73
2023-02-23T01:30:56.765Z,17.40
2023-02-23T01:34:58.560Z,13.43
2023-02-23T01:39:00.306Z,13.97
2023-02-23T01:43:29.495Z,14.87
2023-02-23T01:47:31.411Z,20.90
2023-02-23T01:51:42.946Z,23.07
2023-02-23T01:55:46.161Z,16.37
2023-02-23T01:59:49.894Z,16.17
2023-02-23T02:04:05.744Z,17.37
2023-02-23T02:08:10.475Z,17.67
2023-02-23T02:12:12.788Z,15.90
2023-02-23T02:16:42.363Z,21.30
2023-02-23T02:21:22.616Z,18.30
2023-02-23T02:26:10.311Z,16.30
2023-02-23T02:30:26.624Z,15.73
2023-02-23T02:35:02.857Z,20.57
2023-02-23T02:39:34.953Z,16.57
2023-02-23T02:44:11.614Z,16.70
2023-02-23T02:48:19.991Z,19.27
2023-02-23T02:52:35.840Z,15.83
2023-02-23T02:56:43.154Z,22.17
2023-02-23T03:01:08.972Z,19.63
2023-02-23T03:05:34.376Z,20.83
2023-02-23T03:10:14.450Z,16.93
2023-02-23T03:14:54.504Z,19.07
2023-02-23T03:19:29.207Z,21.50
2023-02-23T03:24:21.063Z,26.03
2023-02-23T03:28:50.166Z,19.70
2023-02-23T03:33:14.722Z,20.57
2023-02-23T03:37:49.276Z,28.63
2023-02-23T03:42:13.965Z,22.70
2023-02-23T03:46:36.940Z,19.40
2023-02-23T03:51:09.309Z,22.90
2023-02-23T03:55:40.253Z,18.57
2023-02-23T04:00:10.669Z,20.70
2023-02-23T04:04:34.038Z,18.23
2023-02-23T04:08:57.972Z,20.30
2023-02-23T04:13:14.816Z,24.80
2023-02-23T04:17:18.125Z,24.33
2023-02-23T04:21:20.307Z,24.93
2023-02-23T04:25:22.946Z,22.87
2023-02-23T04:29:24.830Z,19.83
2023-02-23T04:33:27.167Z,20.43
2023-02-23T04:37:28.989Z,21.73
2023-02-23T04:41:30.795Z,20.23
2023-02-23T04:45:33.513Z,21.90
2023-02-23T04:49:35.402Z,18.33
2023-02-23T04:53:38.554Z,19.47
2023-02-23T04:57:40.332Z,23.27
2023-02-23T05:01:42.299Z,23.70
2023-02-23T05:05:44.970Z,19.33
2023-02-23T05:09:46.770Z,22.77
2023-02-23T05:13:48.548Z,22.77
2023-02-23T05:17:50.333Z,24.13
2023-02-23T05:21:52.161Z,21.33
2023-02-23T05:25:53.981Z,20.47
2023-02-23T05:29:55.823Z,20.73
2023-02-23T05:33:57.692Z,22.23
2023-02-23T05:37:59.469Z,22.77
2023-02-23T05:42:01.283Z,22.83
2023-02-23T05:46:11.559Z,20.13
2023-02-23T05:50:13.420Z,22.07
2023-02-23T05:54:15.285Z,22.20
2023-02-23T05:58:17.248Z,25.30
2023-02-23T06:02:19.094Z,23.37
2023-02-23T06:06:22.312Z,23.23
2023-02-23T06:10:24.142Z,25.03
2023-02-23T06:14:26.056Z,24.20
2023-02-23T06:18:29.141Z,28.77
2023-02-23T06:22:31.212Z,26.63
2023-02-23T06:26:33.326Z,24.57
2023-02-23T06:30:36.351Z,26.43
2023-02-23T06:34:38.258Z,27.93
2023-02-23T06:38:40.174Z,27.90
2023-02-23T06:42:41.929Z,28.33
2023-02-23T06:46:43.719Z,28.90
2023-02-23T06:50:45.549Z,27.40
2023-02-23T06:54:48.304Z,25.03
2023-02-23T06:58:50.418Z,27.40
2023-02-23T07:02:52.370Z,28.03
2023-02-23T07:06:54.282Z,30.53
2023-02-23T07:10:57.664Z,28.50
2023-02-23T07:14:59.697Z,28.83
2023-02-23T07:19:01.557Z,29.40
2023-02-23T07:23:03.524Z,32.77
2023-02-23T07:27:05.471Z,32.47
2023-02-23T07:31:07.358Z,39.37
2023-02-23T07:35:09.695Z,36.13
2023-02-23T07:39:11.464Z,42.53
2023-02-23T07:43:13.202Z,41.63
2023-02-23T07:47:15.111Z,36.13
2023-02-23T07:51:17.801Z,37.17
2023-02-23T07:55:20.922Z,43.90
2023-02-23T07:59:22.895Z,76.23
2023-02-23T08:03:24.791Z,40.87
2023-02-23T08:07:26.632Z,39.03
2023-02-23T08:11:31.427Z,32.87
2023-02-23T08:15:33.221Z,31.83
2023-02-23T08:19:35.757Z,34.37
2023-02-23T08:23:37.774Z,43.67
2023-02-23T08:27:40.320Z,38.27
2023-02-23T08:31:42.298Z,38.47
2023-02-23T08:35:45.135Z,44.70
2023-02-23T08:39:46.877Z,37.33
2023-02-23T08:43:49.194Z,34.50
2023-02-23T08:47:51.121Z,37.23
2023-02-23T08:51:52.949Z,38.27
2023-02-23T08:56:03.608Z,40.87
2023-02-23T09:00:16.723Z,37.67
2023-02-23T09:04:18.727Z,38.03
2023-02-23T09:08:21.489Z,46.60
2023-02-23T09:12:23.502Z,36.63
2023-02-23T09:16:25.380Z,38.70
2023-02-23T09:20:27.350Z,38.37
2023-02-23T09:24:29.188Z,35.37
2023-02-23T09:28:31.281Z,36.47
2023-02-23T09:32:33.109Z,44.50
2023-02-23T09:36:34.991Z,41.73
2023-02-23T09:40:57.098Z,39.57
2023-02-23T09:45:11.837Z,39.73
2023-02-23T09:49:18.368Z,39.33
2023-02-23T09:53:31.615Z,46.53
2023-02-23T09:57:40.995Z,40.33
2023-02-23T10:01:47.988Z,43.93
2023-02-23T10:05:58.988Z,36.37
2023-02-23T10:10:18.930Z,34.00
2023-02-23T10:14:35.327Z,45.73
2023-02-23T10:18:56.791Z,38.30
2023-02-23T10:23:05.645Z,31.70
2023-02-23T10:27:16.298Z,33.27
2023-02-23T10:31:26.828Z,26.77
2023-02-23T10:35:30.075Z,24.30
2023-02-23T10:39:32.996Z,23.90
2023-02-23T10:43:34.890Z,23.73
2023-02-23T10:47:37.603Z,24.33
2023-02-23T10:51:41.414Z,26.23
2023-02-23T10:55:45.523Z,26.73
2023-02-23T11:00:20.314Z,23.87
2023-02-23T11:04:29.245Z,25.17
2023-02-23T11:08:41.197Z,24.70
2023-02-23T11:12:43.037Z,19.92
2023-02-23T11:16:44.966Z,20.88
2023-02-23T11:20:48.640Z,21.30
2023-02-23T11:24:51.666Z,18.17
2023-02-23T11:28:59.671Z,19.80
2023-02-23T11:33:10.842Z,15.77
2023-02-23T11:37:21.672Z,13.98
2023-02-23T11:41:24.505Z,17.88
2023-02-23T11:45:33.551Z,15.20
2023-02-23T11:49:39.074Z,14.35
2023-02-23T11:53:46.071Z,16.45
2023-02-23T11:57:50.249Z,15.18
2023-02-23T12:01:54.441Z,19.52
2023-02-23T12:05:59.025Z,19.25
2023-02-23T12:10:23.326Z,14.60
2023-02-23T12:14:40.885Z,17.27
2023-02-23T12:18:49.494Z,14.68
2023-02-23T12:23:12.446Z,15.23
2023-02-23T12:27:42.772Z,13.70
2023-02-23T12:32:06.490Z,11.57
2023-02-23T12:36:29.978Z,9.38
2023-02-23T12:40:35.589Z,10.83
2023-02-23T12:44:43.405Z,9.93
2023-02-23T12:49:02.988Z,8.77
2023-02-23T12:53:22.706Z,13.82
2023-02-23T12:57:56.365Z,9.23
2023-02-23T13:02:01.200Z,13.48
2023-02-23T13:06:38.202Z,11.63
2023-02-23T13:10:55.538Z,11.82
2023-02-23T13:15:09.612Z,10.60
2023-02-23T13:19:21.081Z,8.52
2023-02-23T13:23:32.481Z,16.33
2023-02-23T13:27:39.513Z,13.98
2023-02-23T13:31:42.562Z,8.10
2023-02-23T13:35:44.849Z,7.50
2023-02-23T13:40:14.287Z,6.47
2023-02-23T13:44:37.812Z,13.55
2023-02-23T13:48:56.101Z,7.15
2023-02-23T13:53:04.722Z,11.70
2023-02-23T13:57:18.140Z,6.80
2023-02-23T14:01:31.616Z,15.07
2023-02-23T14:05:43.569Z,8.55
2023-02-23T14:09:53.598Z,9.50
2023-02-23T14:14:01.504Z,9.00
2023-02-23T14:18:25.802Z,8.85
2023-02-23T14:22:28.255Z,17.30
2023-02-23T14:26:29.979Z,8.73
2023-02-23T14:30:51.301Z,11.45
2023-02-23T14:34:57.543Z,11.27
2023-02-23T14:39:16.651Z,7.25
2023-02-23T14:43:42.958Z,6.15
2023-02-23T14:47:48.567Z,5.85
2023-02-23T14:51:55.435Z,4.82
2023-02-23T14:55:58.823Z,6.13
2023-02-23T15:00:06.561Z,5.63
2023-02-23T15:04:34.739Z,6.45
2023-02-23T15:08:43.179Z,9.55
2023-02-23T15:12:49.454Z,8.40
2023-02-23T15:16:51.591Z,8.82
2023-02-23T15:20:53.498Z,10.57
2023-02-23T15:25:00.751Z,9.65
2023-02-23T15:29:14.605Z,12.23
2023-02-23T15:33:23.634Z,8.93
2023-02-23T15:37:33.935Z,10.75
2023-02-23T15:41:38.313Z,20.35
2023-02-23T15:45:49.044Z,18.02
2023-02-23T15:50:12.697Z,17.35
2023-02-23T15:54:26.981Z,14.23
2023-02-23T15:58:44.529Z,14.30
2023-02-23T16:02:55.740Z,20.45
2023-02-23T16:07:15.305Z,18.27
2023-02-23T16:11:19.245Z,20.27
2023-02-23T16:15:24.254Z,25.80
2023-02-23T16:19:28.268Z,22.33
2023-02-23T16:23:52.629Z,25.88
2023-02-23T16:28:12.613Z,21.83
2023-02-23T16:32:19.348Z,19.60
2023-02-23T16:36:23.940Z,19.15
2023-02-23T16:40:25.822Z,20.65
2023-02-23T16:44:37.782Z,19.48
2023-02-23T16:48:45.636Z,18.75
2023-02-23T16:52:51.859Z,20.73
2023-02-23T16:56:55.865Z,19.20
2023-02-23T17:00:57.848Z,21.20
2023-02-23T17:04:59.652Z,27.88
2023-02-23T17:09:01.451Z,17.60
2023-02-23T17:13:06.575Z,18.55
2023-02-23T17:17:13.841Z,17.35
2023-02-23T17:21:22.874Z,13.98
2023-02-23T17:25:26.487Z,16.75
2023-02-23T17:29:28.351Z,19.02
2023-02-23T17:33:33.786Z,20.63
2023-02-23T17:37:37.586Z,14.85
2023-02-23T17:41:39.577Z,22.17
2023-02-23T17:45:41.547Z,24.05
2023-02-23T17:49:43.423Z,22.75
2023-02-23T17:53:45.230Z,46.03
2023-02-23T17:57:47.535Z,21.23
2023-02-23T18:01:49.823Z,15.47
2023-02-23T18:05:52.826Z,14.27
2023-02-23T18:09:54.731Z,20.67
2023-02-23T18:13:56.552Z,20.95
2023-02-23T18:17:59.481Z,19.03
2023-02-23T18:22:01.322Z,18.27
2023-02-23T18:26:09.200Z,20.83
2023-02-23T18:30:11.836Z,72.28
2023-02-23T18:34:14.315Z,22.33
2023-02-23T18:38:16.233Z,26.73
2023-02-23T18:42:17.994Z,19.80
2023-02-23T18:46:19.873Z,25.40
2023-02-23T18:50:21.815Z,18.47
2023-02-23T18:54:26.621Z,19.33
2023-02-23T18:58:28.441Z,23.20
2023-02-23T19:02:30.214Z,19.80
2023-02-23T19:06:32.975Z,23.13
2023-02-23T19:10:36.330Z,16.90
2023-02-23T19:14:49.310Z,12.10
2023-02-23T19:18:51.777Z,13.83
2023-02-23T19:22:53.550Z,24.83
2023-02-23T19:26:55.389Z,16.33
2023-02-23T19:31:08.922Z,13.48
2023-02-23T19:35:14.844Z,12.48
2023-02-23T19:39:16.767Z,14.57
2023-02-23T19:43:18.636Z,16.57
2023-02-23T19:47:20.459Z,17.50
2023-02-23T19:51:23.453Z,14.53
2023-02-23T19:55:25.683Z,23.07
2023-02-23T19:59:28.563Z,23.97
2023-02-23T20:03:30.430Z,25.43
2023-02-23T20:07:32.342Z,21.27
2023-02-23T20:11:34.205Z,20.87
2023-02-23T20:15:36.363Z,22.60
2023-02-23T20:19:38.616Z,23.40
2023-02-23T20:23:41.750Z,22.57
2023-02-23T20:27:44.418Z,21.97
2023-02-23T20:31:50.429Z,26.45
2023-02-23T20:35:52.426Z,18.80
2023-02-23T20:39:54.421Z,27.40
2023-02-23T20:43:56.705Z,22.13
2023-02-23T20:47:58.743Z,24.43
2023-02-23T20:52:01.549Z,25.23
2023-02-23T20:56:07.467Z,26.77
2023-02-23T21:00:10.271Z,22.90
2023-02-23T21:04:13.185Z,26.53
2023-02-23T21:08:15.703Z,20.37
2023-02-23T21:12:17.708Z,26.83
2023-02-23T21:16:20.811Z,27.07
2023-02-23T21:20:23.939Z,23.97
2023-02-23T21:24:26.433Z,18.80
2023-02-23T21:28:28.211Z,20.10
2023-02-23T21:32:35.377Z,24.27
2023-02-23T21:36:37.545Z,26.07
2023-02-23T21:40:42.218Z,23.00
2023-02-23T21:44:44.523Z,24.17
2023-02-23T21:48:46.406Z,25.47
2023-02-23T21:52:50.365Z,26.00
2023-02-23T21:56:52.225Z,20.47
2023-02-23T22:00:54.205Z,16.50
2023-02-23T22:04:56.580Z,18.13
2023-02-23T22:08:58.438Z,17.30
2023-02-23T22:13:00.862Z,14.70
2023-02-23T22:17:03.886Z,15.87
2023-02-23T22:21:05.812Z,16.63
2023-02-23T22:25:08.401Z,20.70
2023-02-23T22:29:10.992Z,22.03
2023-02-23T22:33:12.939Z,28.63
2023-02-23T22:37:14.768Z,28.57
2023-02-23T22:41:16.655Z,19.50
2023-02-23T22:45:18.769Z,16.23
2023-02-23T22:49:20.619Z,15.10
2023-02-23T22:53:23.016Z,18.70
2023-02-23T22:57:24.838Z,22.27
2023-02-23T23:01:27.156Z,18.07
2023-02-23T23:05:28.938Z,26.10
2023-02-23T23:09:30.707Z,26.03
2023-02-23T23:13:32.518Z,18.27
2023-02-23T23:17:34.374Z,16.87
2023-02-23T23:21:36.272Z,18.40
2023-02-23T23:25:41.796Z,22.13
2023-02-23T23:29:46.558Z,45.03
2023-02-23T23:33:51.562Z,15.13
2023-02-23T23:37:53.371Z,16.70
2023-02-23T23:41:55.298Z,24.67
2023-02-23T23:45:57.869Z,25.63
2023-02-23T23:49:59.902Z,11.97
2023-02-23T23:54:02.913Z,8.67
2023-02-23T23:58:06.130Z,9.70
